Terminal Aerodrome Forecast
Issued by NWS Grand Forks, ND

Home | Current Version | Previous Version | Text Only | Print | Product List | Glossary Off
Versions: 1 2 3 4 5 6 7 8 9 10 11 12 13 14 15 16 17 18 19 20

869
FTUS43 KFGF 082148 AAA
TAFFAR
TAF AMD
KFAR 082148Z 0822/0918 29017G23KT P6SM SCT070
     FM090300 33016KT P6SM BKN025
     FM090800 34011KT P6SM BKN050
     FM091300 33007KT P6SM SCT070
     FM091700 27005KT P6SM SCT070=

USA.gov is the U.S. government's official web portal to all federal, state and local government web resources and services.